sensor_id;sensor_type;location;lat;lon;timestamp;pressure;altitude;pressure_sealevel;temperature;humidity
64189;BME280;50493;50.970;10.082;2023-07-20T00:01:22;98968.69;;;20.25;42.00
64189;BME280;50493;50.970;10.082;2023-07-20T00:03:47;98968.16;;;20.33;42.01
64189;BME280;50493;50.970;10.082;2023-07-20T00:06:21;98963.06;;;20.30;41.84
64189;BME280;50493;50.970;10.082;2023-07-20T00:08:46;98958.28;;;20.22;42.11
64189;BME280;50493;50.970;10.082;2023-07-20T00:11:12;98950.63;;;20.17;42.27
64189;BME280;50493;50.970;10.082;2023-07-20T00:13:38;98954.53;;;20.12;42.31
64189;BME280;50493;50.970;10.082;2023-07-20T00:16:04;98962.28;;;20.02;42.43
64189;BME280;50493;50.970;10.082;2023-07-20T00:18:29;98956.19;;;20.00;42.67
64189;BME280;50493;50.970;10.082;2023-07-20T00:20:55;98960.56;;;20.01;42.31
64189;BME280;50493;50.970;10.082;2023-07-20T00:23:22;98960.19;;;19.80;42.86
64189;BME280;50493;50.970;10.082;2023-07-20T00:25:47;98949.19;;;19.86;42.70
64189;BME280;50493;50.970;10.082;2023-07-20T00:28:13;98947.28;;;19.88;42.70
64189;BME280;50493;50.970;10.082;2023-07-20T00:30:38;98951.28;;;19.81;42.66
64189;BME280;50493;50.970;10.082;2023-07-20T00:33:04;98946.59;;;19.71;42.87
64189;BME280;50493;50.970;10.082;2023-07-20T00:35:29;98948.34;;;19.85;42.54
64189;BME280;50493;50.970;10.082;2023-07-20T00:37:54;98944.72;;;19.86;42.27
64189;BME280;50493;50.970;10.082;2023-07-20T00:40:21;98942.78;;;19.76;42.41
64189;BME280;50493;50.970;10.082;2023-07-20T00:42:46;98942.16;;;19.72;42.73
64189;BME280;50493;50.970;10.082;2023-07-20T00:45:12;98949.78;;;19.64;42.31
64189;BME280;50493;50.970;10.082;2023-07-20T00:47:37;98951.47;;;19.65;42.67
64189;BME280;50493;50.970;10.082;2023-07-20T00:50:04;98944.22;;;19.54;42.99
64189;BME280;50493;50.970;10.082;2023-07-20T00:52:30;98954.19;;;19.50;42.71
64189;BME280;50493;50.970;10.082;2023-07-20T00:54:55;98953.53;;;19.47;42.88
64189;BME280;50493;50.970;10.082;2023-07-20T00:57:24;98959.03;;;19.44;43.17
64189;BME280;50493;50.970;10.082;2023-07-20T00:59:51;98954.31;;;19.49;42.84
64189;BME280;50493;50.970;10.082;2023-07-20T01:02:16;98956.28;;;19.45;42.90
64189;BME280;50493;50.970;10.082;2023-07-20T01:04:42;98950.56;;;19.51;42.35
64189;BME280;50493;50.970;10.082;2023-07-20T01:07:11;98951.81;;;19.46;42.77
64189;BME280;50493;50.970;10.082;2023-07-20T01:09:42;98952.81;;;19.45;42.48
64189;BME280;50493;50.970;10.082;2023-07-20T01:12:13;98944.84;;;19.45;42.80
64189;BME280;50493;50.970;10.082;2023-07-20T01:14:44;98943.63;;;19.21;43.17
64189;BME280;50493;50.970;10.082;2023-07-20T01:17:10;98947.44;;;19.17;43.43
64189;BME280;50493;50.970;10.082;2023-07-20T01:19:35;98947.66;;;19.14;43.15
64189;BME280;50493;50.970;10.082;2023-07-20T01:22:05;98945.47;;;19.07;43.22
64189;BME280;50493;50.970;10.082;2023-07-20T01:24:57;98939.34;;;19.06;43.17
64189;BME280;50493;50.970;10.082;2023-07-20T01:27:46;98938.53;;;19.18;42.88
64189;BME280;50493;50.970;10.082;2023-07-20T01:30:36;98951.28;;;18.99;43.24
64189;BME280;50493;50.970;10.082;2023-07-20T01:33:09;98941.63;;;18.98;43.06
64189;BME280;50493;50.970;10.082;2023-07-20T01:35:38;98939.38;;;18.92;43.40
64189;BME280;50493;50.970;10.082;2023-07-20T01:38:06;98940.41;;;18.89;43.29
64189;BME280;50493;50.970;10.082;2023-07-20T01:40:32;98944.19;;;18.85;43.53
64189;BME280;50493;50.970;10.082;2023-07-20T01:42:58;98945.53;;;18.63;43.64
64189;BME280;50493;50.970;10.082;2023-07-20T01:45:23;98949.94;;;18.48;44.29
64189;BME280;50493;50.970;10.082;2023-07-20T01:47:49;98954.72;;;18.58;43.97
64189;BME280;50493;50.970;10.082;2023-07-20T01:50:15;98949.06;;;18.64;43.82
64189;BME280;50493;50.970;10.082;2023-07-20T01:52:41;98952.16;;;18.56;43.81
64189;BME280;50493;50.970;10.082;2023-07-20T01:55:07;98956.91;;;18.65;43.43
64189;BME280;50493;50.970;10.082;2023-07-20T01:57:32;98956.31;;;18.60;43.70
64189;BME280;50493;50.970;10.082;2023-07-20T01:59:58;98950.34;;;18.57;43.81
64189;BME280;50493;50.970;10.082;2023-07-20T02:02:26;98953.97;;;18.56;43.33
64189;BME280;50493;50.970;10.082;2023-07-20T02:04:52;98946.03;;;18.56;43.12
64189;BME280;50493;50.970;10.082;2023-07-20T02:07:19;98943.72;;;18.49;43.40
64189;BME280;50493;50.970;10.082;2023-07-20T02:09:45;98943.53;;;18.38;44.15
64189;BME280;50493;50.970;10.082;2023-07-20T02:12:10;98953.75;;;18.30;43.75
64189;BME280;50493;50.970;10.082;2023-07-20T02:14:35;98957.03;;;18.33;44.03
64189;BME280;50493;50.970;10.082;2023-07-20T02:17:01;98961.19;;;18.37;43.52
64189;BME280;50493;50.970;10.082;2023-07-20T02:19:27;98959.59;;;18.35;43.95
64189;BME280;50493;50.970;10.082;2023-07-20T02:21:52;98960.94;;;18.42;43.77
64189;BME280;50493;50.970;10.082;2023-07-20T02:24:19;98958.19;;;18.44;43.28
64189;BME280;50493;50.970;10.082;2023-07-20T02:26:44;98959.03;;;18.44;43.17
64189;BME280;50493;50.970;10.082;2023-07-20T02:29:10;98963.75;;;18.39;43.36
64189;BME280;50493;50.970;10.082;2023-07-20T02:31:36;98955.06;;;18.37;43.51
64189;BME280;50493;50.970;10.082;2023-07-20T02:34:02;98958.75;;;18.34;43.44
64189;BME280;50493;50.970;10.082;2023-07-20T02:36:28;98962.22;;;18.35;43.76
64189;BME280;50493;50.970;10.082;2023-07-20T02:38:53;98955.31;;;18.32;43.62
64189;BME280;50493;50.970;10.082;2023-07-20T02:41:21;98960.56;;;18.34;43.57
64189;BME280;50493;50.970;10.082;2023-07-20T02:43:46;98963.94;;;18.36;43.44
64189;BME280;50493;50.970;10.082;2023-07-20T02:46:11;98953.09;;;18.41;43.03
64189;BME280;50493;50.970;10.082;2023-07-20T02:48:37;98955.81;;;18.39;42.99
64189;BME280;50493;50.970;10.082;2023-07-20T02:51:02;98953.09;;;18.41;42.78
64189;BME280;50493;50.970;10.082;2023-07-20T02:53:28;98959.78;;;18.32;43.04
64189;BME280;50493;50.970;10.082;2023-07-20T02:55:53;98954.94;;;18.24;43.25
64189;BME280;50493;50.970;10.082;2023-07-20T02:58:20;98949.38;;;18.29;42.99
64189;BME280;50493;50.970;10.082;2023-07-20T03:00:45;98956.94;;;18.20;43.08
64189;BME280;50493;50.970;10.082;2023-07-20T03:03:10;98965.53;;;18.10;43.41
64189;BME280;50493;50.970;10.082;2023-07-20T03:05:36;98969.59;;;18.15;43.62
64189;BME280;50493;50.970;10.082;2023-07-20T03:08:05;98967.88;;;18.14;43.58
64189;BME280;50493;50.970;10.082;2023-07-20T03:10:31;98964.28;;;18.15;43.51
64189;BME280;50493;50.970;10.082;2023-07-20T03:12:57;98968.06;;;18.11;43.09
64189;BME280;50493;50.970;10.082;2023-07-20T03:15:23;98963.38;;;18.16;43.28
64189;BME280;50493;50.970;10.082;2023-07-20T03:17:49;98962.78;;;18.11;43.27
64189;BME280;50493;50.970;10.082;2023-07-20T03:20:14;98960.38;;;17.92;43.95
64189;BME280;50493;50.970;10.082;2023-07-20T03:22:40;98968.97;;;17.96;43.45
64189;BME280;50493;50.970;10.082;2023-07-20T03:25:05;98967.13;;;17.82;43.62
64189;BME280;50493;50.970;10.082;2023-07-20T03:27:31;98968.00;;;17.82;43.59
64189;BME280;50493;50.970;10.082;2023-07-20T03:29:56;98963.75;;;17.80;43.96
64189;BME280;50493;50.970;10.082;2023-07-20T03:32:23;98972.06;;;17.88;43.91
64189;BME280;50493;50.970;10.082;2023-07-20T03:34:48;98974.97;;;17.83;43.69
64189;BME280;50493;50.970;10.082;2023-07-20T03:37:14;98967.81;;;17.85;43.34
64189;BME280;50493;50.970;10.082;2023-07-20T03:39:39;98965.75;;;17.91;43.52
64189;BME280;50493;50.970;10.082;2023-07-20T03:42:05;98967.81;;;17.85;43.32
64189;BME280;50493;50.970;10.082;2023-07-20T03:44:31;98970.28;;;17.89;43.13
64189;BME280;50493;50.970;10.082;2023-07-20T03:46:56;98965.06;;;17.87;43.42
64189;BME280;50493;50.970;10.082;2023-07-20T03:49:24;98963.84;;;17.78;43.23
64189;BME280;50493;50.970;10.082;2023-07-20T03:51:49;98983.44;;;17.74;43.67
64189;BME280;50493;50.970;10.082;2023-07-20T03:54:14;98970.41;;;17.71;43.63
64189;BME280;50493;50.970;10.082;2023-07-20T03:56:40;98979.41;;;17.67;43.89
64189;BME280;50493;50.970;10.082;2023-07-20T03:59:05;98975.94;;;17.66;43.63
64189;BME280;50493;50.970;10.082;2023-07-20T04:01:30;98973.38;;;17.65;43.40
64189;BME280;50493;50.970;10.082;2023-07-20T04:04:01;98971.69;;;17.64;43.37
64189;BME280;50493;50.970;10.082;2023-07-20T04:06:28;98970.91;;;17.62;43.61
64189;BME280;50493;50.970;10.082;2023-07-20T04:08:54;98971.09;;;17.59;43.73
64189;BME280;50493;50.970;10.082;2023-07-20T04:11:19;98972.78;;;17.60;43.63
64189;BME280;50493;50.970;10.082;2023-07-20T04:13:44;98965.78;;;17.59;43.44
64189;BME280;50493;50.970;10.082;2023-07-20T04:16:10;98975.84;;;17.68;43.08
64189;BME280;50493;50.970;10.082;2023-07-20T04:18:35;98976.19;;;17.62;43.57
64189;BME280;50493;50.970;10.082;2023-07-20T04:21:01;98981.84;;;17.56;43.53
64189;BME280;50493;50.970;10.082;2023-07-20T04:23:27;98979.44;;;17.51;43.45
64189;BME280;50493;50.970;10.082;2023-07-20T04:25:53;98981.09;;;18.14;42.28
64189;BME280;50493;50.970;10.082;2023-07-20T04:28:18;98973.69;;;19.08;40.03
64189;BME280;50493;50.970;10.082;2023-07-20T04:30:43;98974.28;;;19.67;38.32
64189;BME280;50493;50.970;10.082;2023-07-20T04:33:09;98977.19;;;19.77;38.05
64189;BME280;50493;50.970;10.082;2023-07-20T04:35:51;98976.25;;;20.31;37.08
64189;BME280;50493;50.970;10.082;2023-07-20T04:38:16;98974.63;;;20.80;35.94
64189;BME280;50493;50.970;10.082;2023-07-20T04:40:44;98981.00;;;21.28;35.27
64189;BME280;50493;50.970;10.082;2023-07-20T04:43:10;98975.81;;;21.75;34.09
64189;BME280;50493;50.970;10.082;2023-07-20T04:45:35;98971.16;;;21.89;35.34
64189;BME280;50493;50.970;10.082;2023-07-20T04:48:00;98979.19;;;22.01;33.52
64189;BME280;50493;50.970;10.082;2023-07-20T04:50:26;98976.72;;;21.86;33.89
64189;BME280;50493;50.970;10.082;2023-07-20T04:52:52;98991.19;;;21.34;34.80
64189;BME280;50493;50.970;10.082;2023-07-20T04:55:18;98983.41;;;21.07;35.04
64189;BME280;50493;50.970;10.082;2023-07-20T04:57:45;98984.78;;;20.86;35.96
64189;BME280;50493;50.970;10.082;2023-07-20T05:00:11;98985.34;;;20.66;36.05
64189;BME280;50493;50.970;10.082;2023-07-20T05:02:38;98987.69;;;20.32;36.40
64189;BME280;50493;50.970;10.082;2023-07-20T05:05:04;98994.78;;;20.18;36.97
64189;BME280;50493;50.970;10.082;2023-07-20T05:07:31;98994.47;;;20.23;36.84
64189;BME280;50493;50.970;10.082;2023-07-20T05:09:56;98989.50;;;20.31;37.16
64189;BME280;50493;50.970;10.082;2023-07-20T05:12:21;98986.69;;;20.07;37.06
64189;BME280;50493;50.970;10.082;2023-07-20T05:14:48;98989.19;;;19.96;41.03
64189;BME280;50493;50.970;10.082;2023-07-20T05:17:13;98995.19;;;19.72;41.45
64189;BME280;50493;50.970;10.082;2023-07-20T05:19:39;98984.09;;;19.52;41.10
64189;BME280;50493;50.970;10.082;2023-07-20T05:22:04;98989.81;;;19.32;41.31
64189;BME280;50493;50.970;10.082;2023-07-20T05:24:30;98988.03;;;19.18;41.58
64189;BME280;50493;50.970;10.082;2023-07-20T05:26:56;98996.31;;;18.99;41.45
64189;BME280;50493;50.970;10.082;2023-07-20T05:29:21;99003.84;;;19.05;41.18
64189;BME280;50493;50.970;10.082;2023-07-20T05:31:48;99000.84;;;19.11;41.50
64189;BME280;50493;50.970;10.082;2023-07-20T05:34:13;98995.88;;;19.34;41.92
64189;BME280;50493;50.970;10.082;2023-07-20T05:36:39;98989.44;;;19.24;41.41
64189;BME280;50493;50.970;10.082;2023-07-20T05:39:05;98990.94;;;19.42;40.64
64189;BME280;50493;50.970;10.082;2023-07-20T05:41:30;98991.31;;;19.50;42.81
64189;BME280;50493;50.970;10.082;2023-07-20T05:43:56;98983.28;;;19.37;42.69
64189;BME280;50493;50.970;10.082;2023-07-20T05:46:21;98983.38;;;19.36;44.75
64189;BME280;50493;50.970;10.082;2023-07-20T05:48:49;98986.34;;;19.59;39.93
64189;BME280;50493;50.970;10.082;2023-07-20T05:51:14;98988.94;;;19.46;51.73
64189;BME280;50493;50.970;10.082;2023-07-20T05:53:40;98998.88;;;18.86;54.22
64189;BME280;50493;50.970;10.082;2023-07-20T05:56:05;98999.25;;;18.20;56.69
64189;BME280;50493;50.970;10.082;2023-07-20T05:58:30;98998.84;;;17.82;59.29
64189;BME280;50493;50.970;10.082;2023-07-20T06:00:56;98993.72;;;18.40;56.83
64189;BME280;50493;50.970;10.082;2023-07-20T06:03:22;98996.47;;;19.25;53.04
64189;BME280;50493;50.970;10.082;2023-07-20T06:05:48;98994.16;;;19.33;48.07
64189;BME280;50493;50.970;10.082;2023-07-20T06:08:14;98999.84;;;19.27;41.85
64189;BME280;50493;50.970;10.082;2023-07-20T06:10:39;98996.47;;;19.66;43.19
64189;BME280;50493;50.970;10.082;2023-07-20T06:13:05;98997.97;;;19.83;48.66
64189;BME280;50493;50.970;10.082;2023-07-20T06:15:32;98994.28;;;20.26;40.01
64189;BME280;50493;50.970;10.082;2023-07-20T06:17:59;98999.06;;;19.94;50.58
64189;BME280;50493;50.970;10.082;2023-07-20T06:20:26;98991.03;;;20.08;41.46
64189;BME280;50493;50.970;10.082;2023-07-20T06:22:53;98989.72;;;20.93;47.24
64189;BME280;50493;50.970;10.082;2023-07-20T06:25:18;98996.16;;;21.14;47.19
64189;BME280;50493;50.970;10.082;2023-07-20T06:27:44;98987.16;;;19.86;42.84
64189;BME280;50493;50.970;10.082;2023-07-20T06:30:10;98979.56;;;20.08;47.28
64189;BME280;50493;50.970;10.082;2023-07-20T06:32:36;98983.56;;;20.53;39.71
64189;BME280;50493;50.970;10.082;2023-07-20T06:35:01;98980.44;;;21.11;47.32
64189;BME280;50493;50.970;10.082;2023-07-20T06:37:26;98980.19;;;21.14;37.34
64189;BME280;50493;50.970;10.082;2023-07-20T06:39:53;98977.69;;;20.74;37.61
64189;BME280;50493;50.970;10.082;2023-07-20T06:42:19;98982.06;;;20.75;43.92
64189;BME280;50493;50.970;10.082;2023-07-20T06:44:44;98983.31;;;20.82;41.09
64189;BME280;50493;50.970;10.082;2023-07-20T06:47:10;98988.41;;;19.68;40.11
64189;BME280;50493;50.970;10.082;2023-07-20T06:49:36;98983.16;;;20.07;46.69
64189;BME280;50493;50.970;10.082;2023-07-20T06:52:01;98984.81;;;20.35;45.62
64189;BME280;50493;50.970;10.082;2023-07-20T06:54:27;98982.47;;;20.43;39.17
64189;BME280;50493;50.970;10.082;2023-07-20T06:56:54;98990.13;;;19.82;39.80
64189;BME280;50493;50.970;10.082;2023-07-20T06:59:19;98980.56;;;19.25;42.45
64189;BME280;50493;50.970;10.082;2023-07-20T07:01:46;98980.16;;;19.31;41.29
64189;BME280;50493;50.970;10.082;2023-07-20T07:04:12;98985.38;;;20.40;41.64
64189;BME280;50493;50.970;10.082;2023-07-20T07:06:37;98983.84;;;20.23;42.90
64189;BME280;50493;50.970;10.082;2023-07-20T07:09:03;98985.38;;;20.53;38.74
64189;BME280;50493;50.970;10.082;2023-07-20T07:11:28;98979.84;;;20.56;38.65
64189;BME280;50493;50.970;10.082;2023-07-20T07:13:55;98981.22;;;20.36;43.82
64189;BME280;50493;50.970;10.082;2023-07-20T07:16:20;98983.00;;;20.23;44.85
64189;BME280;50493;50.970;10.082;2023-07-20T07:18:46;98990.53;;;20.16;43.49
64189;BME280;50493;50.970;10.082;2023-07-20T07:21:12;98984.94;;;20.46;44.95
64189;BME280;50493;50.970;10.082;2023-07-20T07:23:38;98980.84;;;19.62;40.48
64189;BME280;50493;50.970;10.082;2023-07-20T07:26:03;98989.44;;;19.65;40.89
64189;BME280;50493;50.970;10.082;2023-07-20T07:28:29;98981.78;;;19.61;46.69
64189;BME280;50493;50.970;10.082;2023-07-20T07:30:56;98993.16;;;19.63;41.43
64189;BME280;50493;50.970;10.082;2023-07-20T07:33:22;98975.97;;;20.73;43.53
64189;BME280;50493;50.970;10.082;2023-07-20T07:35:47;98977.03;;;20.96;39.70
64189;BME280;50493;50.970;10.082;2023-07-20T07:38:13;98979.41;;;20.36;39.44
64189;BME280;50493;50.970;10.082;2023-07-20T07:40:38;98984.09;;;20.33;40.11
64189;BME280;50493;50.970;10.082;2023-07-20T07:43:03;98986.38;;;19.99;41.66
64189;BME280;50493;50.970;10.082;2023-07-20T07:45:29;98992.50;;;20.12;40.98
64189;BME280;50493;50.970;10.082;2023-07-20T07:47:56;98986.63;;;20.21;41.52
64189;BME280;50493;50.970;10.082;2023-07-20T07:50:21;98993.31;;;19.87;41.37
64189;BME280;50493;50.970;10.082;2023-07-20T07:52:47;98996.69;;;19.76;41.75
64189;BME280;50493;50.970;10.082;2023-07-20T07:55:12;98986.69;;;20.07;41.39
64189;BME280;50493;50.970;10.082;2023-07-20T07:57:38;98996.34;;;19.68;41.71
64189;BME280;50493;50.970;10.082;2023-07-20T08:00:04;98999.59;;;20.26;43.21
64189;BME280;50493;50.970;10.082;2023-07-20T08:02:31;99002.53;;;20.21;41.20
64189;BME280;50493;50.970;10.082;2023-07-20T08:04:58;98994.03;;;21.07;39.19
64189;BME280;50493;50.970;10.082;2023-07-20T08:07:23;98990.81;;;21.14;39.57
64189;BME280;50493;50.970;10.082;2023-07-20T08:09:49;98982.38;;;20.58;40.10
64189;BME280;50493;50.970;10.082;2023-07-20T08:12:14;98987.06;;;20.15;40.95
64189;BME280;50493;50.970;10.082;2023-07-20T08:14:42;98994.16;;;19.87;41.41
64189;BME280;50493;50.970;10.082;2023-07-20T08:17:08;98983.78;;;20.50;41.63
64189;BME280;50493;50.970;10.082;2023-07-20T08:19:34;98979.84;;;21.80;39.12
64189;BME280;50493;50.970;10.082;2023-07-20T08:22:04;98973.44;;;22.30;37.54
64189;BME280;50493;50.970;10.082;2023-07-20T08:24:29;98981.09;;;21.99;38.37
64189;BME280;50493;50.970;10.082;2023-07-20T08:26:55;98989.72;;;22.49;36.47
64189;BME280;50493;50.970;10.082;2023-07-20T08:29:20;98983.19;;;22.76;36.25
64189;BME280;50493;50.970;10.082;2023-07-20T08:31:46;98985.47;;;22.69;36.16
64189;BME280;50493;50.970;10.082;2023-07-20T08:34:11;98992.59;;;22.35;37.83
64189;BME280;50493;50.970;10.082;2023-07-20T08:36:37;98986.09;;;22.73;35.78
64189;BME280;50493;50.970;10.082;2023-07-20T08:39:03;98976.41;;;22.61;36.29
64189;BME280;50493;50.970;10.082;2023-07-20T08:41:29;98983.19;;;22.07;37.04
64189;BME280;50493;50.970;10.082;2023-07-20T08:43:54;98975.78;;;21.99;37.37
64189;BME280;50493;50.970;10.082;2023-07-20T08:46:21;98981.78;;;21.89;37.40
64189;BME280;50493;50.970;10.082;2023-07-20T08:48:47;98989.38;;;22.88;36.88
64189;BME280;50493;50.970;10.082;2023-07-20T08:51:13;98985.50;;;22.11;36.97
64189;BME280;50493;50.970;10.082;2023-07-20T08:53:41;98984.78;;;22.56;37.90
64189;BME280;50493;50.970;10.082;2023-07-20T08:56:09;98978.25;;;22.13;37.10
64189;BME280;50493;50.970;10.082;2023-07-20T08:58:37;98993.41;;;21.40;38.84
64189;BME280;50493;50.970;10.082;2023-07-20T09:01:04;98987.56;;;21.35;38.87
64189;BME280;50493;50.970;10.082;2023-07-20T09:03:30;98985.03;;;22.17;37.53
64189;BME280;50493;50.970;10.082;2023-07-20T09:05:55;98984.31;;;21.80;37.83
64189;BME280;50493;50.970;10.082;2023-07-20T09:08:20;98987.44;;;21.36;39.10
64189;BME280;50493;50.970;10.082;2023-07-20T09:10:46;98992.88;;;21.35;39.07
64189;BME280;50493;50.970;10.082;2023-07-20T09:13:15;98987.72;;;21.20;39.17
64189;BME280;50493;50.970;10.082;2023-07-20T09:15:45;98987.00;;;21.18;39.55
64189;BME280;50493;50.970;10.082;2023-07-20T09:18:11;98986.81;;;21.70;38.20
64189;BME280;50493;50.970;10.082;2023-07-20T09:20:36;98985.50;;;22.11;37.31
64189;BME280;50493;50.970;10.082;2023-07-20T09:23:04;98983.66;;;22.81;36.20
64189;BME280;50493;50.970;10.082;2023-07-20T09:25:31;98997.94;;;21.99;37.70
64189;BME280;50493;50.970;10.082;2023-07-20T09:27:57;99006.84;;;21.63;38.44
64189;BME280;50493;50.970;10.082;2023-07-20T09:30:25;99018.50;;;21.36;39.23
64189;BME280;50493;50.970;10.082;2023-07-20T09:32:51;99030.09;;;21.35;39.11
64189;BME280;50493;50.970;10.082;2023-07-20T09:35:18;99062.88;;;21.10;40.84
64189;BME280;50493;50.970;10.082;2023-07-20T09:37:46;99067.16;;;21.12;41.25
64189;BME280;50493;50.970;10.082;2023-07-20T09:40:15;99092.41;;;20.53;43.73
64189;BME280;50493;50.970;10.082;2023-07-20T09:42:42;99088.72;;;20.16;45.34
64189;BME280;50493;50.970;10.082;2023-07-20T09:45:08;99083.97;;;19.94;47.09
64189;BME280;50493;50.970;10.082;2023-07-20T09:47:37;99091.28;;;19.76;47.44
64189;BME280;50493;50.970;10.082;2023-07-20T09:50:04;99090.84;;;19.69;48.03
64189;BME280;50493;50.970;10.082;2023-07-20T09:52:30;99095.16;;;19.84;46.65
64189;BME280;50493;50.970;10.082;2023-07-20T09:54:57;99089.19;;;20.08;45.99
64189;BME280;50493;50.970;10.082;2023-07-20T09:57:23;99092.97;;;20.18;45.79
64189;BME280;50493;50.970;10.082;2023-07-20T09:59:48;99087.78;;;20.17;45.96
64189;BME280;50493;50.970;10.082;2023-07-20T10:02:20;99096.78;;;20.14;46.01
64189;BME280;50493;50.970;10.082;2023-07-20T10:04:49;99087.19;;;20.39;54.53
64189;BME280;50493;50.970;10.082;2023-07-20T10:07:18;99079.88;;;20.55;45.84
64189;BME280;50493;50.970;10.082;2023-07-20T10:09:48;99073.59;;;20.57;46.15
64189;BME280;50493;50.970;10.082;2023-07-20T10:12:15;99079.78;;;20.70;45.21
64189;BME280;50493;50.970;10.082;2023-07-20T10:14:44;99081.78;;;20.53;45.64
64189;BME280;50493;50.970;10.082;2023-07-20T10:17:14;99086.00;;;20.43;45.72
64189;BME280;50493;50.970;10.082;2023-07-20T10:19:43;99083.94;;;20.61;45.71
64189;BME280;50493;50.970;10.082;2023-07-20T10:22:13;99082.00;;;20.50;45.36
64189;BME280;50493;50.970;10.082;2023-07-20T10:24:39;99092.09;;;20.45;45.95
64189;BME280;50493;50.970;10.082;2023-07-20T10:27:07;99090.72;;;20.52;45.27
64189;BME280;50493;50.970;10.082;2023-07-20T10:29:32;99096.22;;;20.49;45.43
64189;BME280;50493;50.970;10.082;2023-07-20T10:31:59;99097.94;;;20.50;45.43
64189;BME280;50493;50.970;10.082;2023-07-20T10:34:25;99087.75;;;20.57;45.15
64189;BME280;50493;50.970;10.082;2023-07-20T10:36:50;99082.44;;;20.70;44.99
64189;BME280;50493;50.970;10.082;2023-07-20T10:39:25;99086.72;;;21.11;44.79
64189;BME280;50493;50.970;10.082;2023-07-20T10:42:00;99089.69;;;21.19;43.19
64189;BME280;50493;50.970;10.082;2023-07-20T10:44:26;99090.75;;;21.04;43.82
64189;BME280;50493;50.970;10.082;2023-07-20T10:46:58;99092.22;;;21.08;44.35
64189;BME280;50493;50.970;10.082;2023-07-20T10:49:24;99093.53;;;21.02;43.73
64189;BME280;50493;50.970;10.082;2023-07-20T10:51:56;99095.72;;;21.21;42.84
64189;BME280;50493;50.970;10.082;2023-07-20T10:54:46;99090.31;;;21.23;42.46
64189;BME280;50493;50.970;10.082;2023-07-20T10:57:22;99084.22;;;21.47;41.99
64189;BME280;50493;50.970;10.082;2023-07-20T10:59:48;99094.53;;;21.88;43.03
64189;BME280;50493;50.970;10.082;2023-07-20T11:02:18;99091.91;;;22.00;42.65
64189;BME280;50493;50.970;10.082;2023-07-20T11:04:45;99103.16;;;19.97;50.69
64189;BME280;50493;50.970;10.082;2023-07-20T11:07:15;99100.59;;;20.50;44.87
64189;BME280;50493;50.970;10.082;2023-07-20T11:09:43;99097.22;;;20.74;43.96
64189;BME280;50493;50.970;10.082;2023-07-20T11:12:10;99100.09;;;20.71;43.60
64189;BME280;50493;50.970;10.082;2023-07-20T11:14:40;99102.00;;;20.95;43.21
64189;BME280;50493;50.970;10.082;2023-07-20T11:17:11;99098.09;;;21.13;42.67
64189;BME280;50493;50.970;10.082;2023-07-20T11:19:38;99096.59;;;21.09;42.74
64189;BME280;50493;50.970;10.082;2023-07-20T11:22:05;99084.75;;;21.39;42.81
64189;BME280;50493;50.970;10.082;2023-07-20T11:24:33;99089.75;;;21.44;41.49
64189;BME280;50493;50.970;10.082;2023-07-20T11:27:00;99091.66;;;21.79;41.78
64189;BME280;50493;50.970;10.082;2023-07-20T11:29:28;99083.81;;;21.77;41.05
64189;BME280;50493;50.970;10.082;2023-07-20T11:31:54;99092.13;;;21.60;41.52
64189;BME280;50493;50.970;10.082;2023-07-20T11:34:20;99097.69;;;21.57;41.50
64189;BME280;50493;50.970;10.082;2023-07-20T11:36:48;99092.78;;;21.76;41.32
64189;BME280;50493;50.970;10.082;2023-07-20T11:39:14;99087.88;;;21.70;41.07
64189;BME280;50493;50.970;10.082;2023-07-20T11:41:44;99082.03;;;21.65;41.34
64189;BME280;50493;50.970;10.082;2023-07-20T11:44:12;99086.53;;;21.88;44.19
64189;BME280;50493;50.970;10.082;2023-07-20T11:46:38;99083.31;;;21.59;45.24
64189;BME280;50493;50.970;10.082;2023-07-20T11:49:04;99079.16;;;21.68;41.82
64189;BME280;50493;50.970;10.082;2023-07-20T11:51:30;99075.09;;;21.75;40.82
64189;BME280;50493;50.970;10.082;2023-07-20T11:53:56;99073.41;;;21.74;40.77
64189;BME280;50493;50.970;10.082;2023-07-20T11:56:22;99075.72;;;22.03;40.00
64189;BME280;50493;50.970;10.082;2023-07-20T11:58:48;99067.72;;;22.03;39.92
64189;BME280;50493;50.970;10.082;2023-07-20T12:01:16;99063.13;;;22.87;38.91
64189;BME280;50493;50.970;10.082;2023-07-20T12:03:43;99059.28;;;23.26;37.71
64189;BME280;50493;50.970;10.082;2023-07-20T12:06:08;99054.84;;;24.35;38.68
64189;BME280;50493;50.970;10.082;2023-07-20T12:08:38;99054.19;;;23.11;39.59
64189;BME280;50493;50.970;10.082;2023-07-20T12:11:04;99053.72;;;21.27;44.49
64189;BME280;50493;50.970;10.082;2023-07-20T12:13:36;99046.00;;;22.20;41.33
64189;BME280;50493;50.970;10.082;2023-07-20T12:16:08;99047.16;;;22.87;39.67
64189;BME280;50493;50.970;10.082;2023-07-20T12:18:35;99051.88;;;22.72;41.08
64189;BME280;50493;50.970;10.082;2023-07-20T12:21:01;99044.91;;;23.61;39.40
64189;BME280;50493;50.970;10.082;2023-07-20T12:23:35;99048.78;;;23.79;38.88
64189;BME280;50493;50.970;10.082;2023-07-20T12:26:01;99044.69;;;23.41;39.48
64189;BME280;50493;50.970;10.082;2023-07-20T12:28:26;99049.34;;;23.28;39.53
64189;BME280;50493;50.970;10.082;2023-07-20T12:30:51;99048.09;;;22.98;41.76
64189;BME280;50493;50.970;10.082;2023-07-20T12:33:21;99053.03;;;21.62;43.18
64189;BME280;50493;50.970;10.082;2023-07-20T12:35:49;99047.81;;;21.47;43.24
64189;BME280;50493;50.970;10.082;2023-07-20T12:38:15;99052.88;;;20.49;45.92
64189;BME280;50493;50.970;10.082;2023-07-20T12:40:41;99051.66;;;21.43;44.87
64189;BME280;50493;50.970;10.082;2023-07-20T12:43:06;99056.28;;;21.89;43.90
64189;BME280;50493;50.970;10.082;2023-07-20T12:45:32;99048.28;;;22.14;43.59
64189;BME280;50493;50.970;10.082;2023-07-20T12:47:58;99046.63;;;22.48;43.23